createdAt,value
2019-02-25T00:02:32.269Z,9.50
2019-02-25T00:05:01.045Z,9.15
2019-02-25T00:07:29.931Z,9.35
2019-02-25T00:09:58.697Z,10.58
2019-02-25T00:12:27.549Z,10.38
2019-02-25T00:14:56.654Z,9.45
2019-02-25T00:17:25.527Z,9.10
2019-02-25T00:19:54.977Z,9.78
2019-02-25T00:22:23.730Z,9.40
2019-02-25T00:24:52.602Z,9.65
2019-02-25T00:27:21.373Z,9.30
2019-02-25T00:29:50.247Z,9.65
2019-02-25T00:32:19.036Z,9.18
2019-02-25T00:34:47.883Z,10.25
2019-02-25T00:37:16.698Z,9.73
2019-02-25T00:39:45.462Z,9.93
2019-02-25T00:42:14.248Z,9.85
2019-02-25T00:44:43.066Z,9.33
2019-02-25T00:47:11.855Z,7.35
2019-02-25T00:49:40.988Z,8.63
2019-02-25T00:52:09.838Z,9.43
2019-02-25T00:54:38.602Z,10.68
2019-02-25T00:57:09.008Z,9.18
2019-02-25T00:59:38.268Z,8.83
2019-02-25T01:02:07.536Z,9.55
2019-02-25T01:04:37.079Z,9.25
2019-02-25T01:07:06.072Z,9.00
2019-02-25T01:09:34.841Z,10.30
2019-02-25T01:12:03.790Z,11.07
2019-02-25T01:14:33.201Z,10.43
2019-02-25T01:17:01.973Z,9.63
2019-02-25T01:19:31.167Z,9.95
2019-02-25T01:21:59.936Z,9.63
2019-02-25T01:24:28.737Z,9.28
2019-02-25T01:26:57.656Z,9.75
2019-02-25T01:29:26.470Z,10.70
2019-02-25T01:31:56.390Z,9.53
2019-02-25T01:34:25.990Z,9.90
2019-02-25T01:36:55.075Z,9.40
2019-02-25T01:39:24.346Z,10.03
2019-02-25T01:41:53.213Z,10.65
2019-02-25T01:44:22.669Z,8.80
2019-02-25T01:46:51.852Z,12.17
2019-02-25T01:49:20.986Z,10.95
2019-02-25T01:51:50.467Z,9.98
2019-02-25T01:54:20.006Z,9.43
2019-02-25T01:56:48.790Z,9.53
2019-02-25T01:59:17.552Z,8.63
2019-02-25T02:01:46.343Z,9.03
2019-02-25T02:04:15.133Z,9.40
2019-02-25T02:06:43.916Z,9.18
2019-02-25T02:09:12.990Z,8.93
2019-02-25T02:11:42.095Z,8.70
2019-02-25T02:14:10.890Z,9.85
2019-02-25T02:16:39.684Z,9.65
2019-02-25T02:19:08.454Z,9.60
2019-02-25T02:21:37.218Z,9.43
2019-02-25T02:24:06.078Z,9.88
2019-02-25T02:26:34.867Z,10.85
2019-02-25T02:31:45.999Z,10.63
2019-02-25T02:34:15.128Z,9.08
2019-02-25T02:36:43.917Z,9.60
2019-02-25T02:39:12.699Z,10.03
2019-02-25T02:42:22.373Z,10.28
2019-02-25T02:44:56.775Z,9.13
2019-02-25T02:47:35.668Z,9.95
2019-02-25T02:50:05.832Z,8.33
2019-02-25T02:52:35.356Z,9.38
2019-02-25T02:55:05.060Z,10.65
2019-02-25T02:57:34.552Z,8.80
2019-02-25T03:00:04.589Z,9.18
2019-02-25T03:02:33.699Z,8.83
2019-02-25T03:05:02.541Z,9.20
2019-02-25T03:07:31.329Z,9.48
2019-02-25T03:10:00.274Z,9.45
2019-02-25T03:12:29.435Z,9.10
2019-02-25T03:14:58.202Z,9.28
2019-02-25T03:17:27.431Z,9.78
2019-02-25T03:19:56.566Z,9.03
2019-02-25T03:22:25.792Z,8.38
2019-02-25T03:24:55.283Z,8.88
2019-02-25T03:27:24.534Z,8.78
2019-02-25T03:29:53.784Z,8.63
2019-02-25T03:32:23.242Z,8.95
2019-02-25T03:34:52.444Z,8.98
2019-02-25T03:37:21.237Z,10.08
2019-02-25T03:39:49.998Z,9.75
2019-02-25T03:42:18.784Z,9.73
2019-02-25T03:44:47.942Z,9.53
2019-02-25T03:47:16.715Z,9.75
2019-02-25T03:49:45.491Z,9.30
2019-02-25T03:52:14.286Z,9.45
2019-02-25T03:54:43.060Z,9.68
2019-02-25T03:57:11.894Z,9.68
2019-02-25T03:59:40.852Z,10.03
2019-02-25T04:02:09.766Z,10.88
2019-02-25T04:04:38.609Z,9.73
2019-02-25T04:07:07.564Z,10.40
2019-02-25T04:09:36.340Z,9.73
2019-02-25T04:12:05.256Z,9.98
2019-02-25T04:14:34.109Z,11.55
2019-02-25T04:17:02.889Z,9.40
2019-02-25T04:19:31.652Z,8.48
2019-02-25T04:22:00.457Z,10.40
2019-02-25T04:24:29.266Z,8.73
2019-02-25T04:26:58.038Z,9.83
2019-02-25T04:29:26.812Z,9.78
2019-02-25T04:31:55.635Z,9.68
2019-02-25T04:34:24.433Z,9.80
2019-02-25T04:36:53.206Z,8.73
2019-02-25T04:39:22.044Z,10.00
2019-02-25T04:41:50.833Z,10.00
2019-02-25T04:44:19.608Z,11.33
2019-02-25T04:46:48.397Z,8.85
2019-02-25T04:49:17.229Z,10.20
2019-02-25T04:51:46.014Z,10.28
2019-02-25T04:54:14.775Z,9.10
2019-02-25T04:56:43.576Z,9.50
2019-02-25T04:59:12.364Z,9.55
2019-02-25T05:01:41.149Z,10.53
2019-02-25T05:04:09.973Z,9.23
2019-02-25T05:06:38.834Z,9.70
2019-02-25T05:09:07.682Z,11.43
2019-02-25T05:11:45.665Z,10.32
2019-02-25T05:14:43.120Z,9.35
2019-02-25T05:17:14.688Z,10.38
2019-02-25T05:19:43.498Z,9.45
2019-02-25T05:22:12.548Z,8.30
2019-02-25T05:24:45.818Z,9.33
2019-02-25T05:27:14.610Z,8.88
2019-02-25T05:29:43.442Z,8.70
2019-02-25T05:32:12.233Z,8.93
2019-02-25T05:34:41.054Z,10.28
2019-02-25T05:37:09.935Z,9.73
2019-02-25T05:39:39.964Z,11.22
2019-02-25T05:42:08.759Z,11.20
2019-02-25T05:44:37.529Z,10.78
2019-02-25T05:47:06.325Z,10.95
2019-02-25T05:49:35.128Z,10.20
2019-02-25T05:52:04.296Z,9.20
2019-02-25T05:54:33.066Z,10.15
2019-02-25T05:57:01.870Z,12.47
2019-02-25T05:59:38.706Z,11.30
2019-02-25T06:02:07.575Z,10.53
2019-02-25T06:04:36.665Z,10.60
2019-02-25T06:07:06.528Z,11.93
2019-02-25T06:09:35.932Z,13.00
2019-02-25T06:12:04.796Z,13.08
2019-02-25T06:14:33.925Z,23.45
2019-02-25T06:17:03.229Z,13.00
2019-02-25T06:19:32.531Z,11.28
2019-02-25T06:22:01.647Z,13.70
2019-02-25T06:24:30.787Z,13.35
2019-02-25T06:27:00.203Z,13.70
2019-02-25T06:29:29.355Z,13.30
2019-02-25T06:31:58.166Z,14.05
2019-02-25T06:34:30.879Z,12.85
2019-02-25T06:37:01.885Z,10.48
2019-02-25T06:39:30.670Z,10.85
2019-02-25T06:45:17.236Z,11.20
2019-02-25T06:47:46.486Z,12.90
2019-02-25T06:50:15.723Z,12.55
2019-02-25T06:52:44.578Z,13.25
2019-02-25T06:55:14.945Z,11.00
2019-02-25T06:57:43.985Z,11.33
2019-02-25T07:00:20.743Z,11.43
2019-02-25T07:02:51.312Z,12.90
2019-02-25T07:05:25.431Z,15.18
2019-02-25T07:07:57.371Z,13.30
2019-02-25T07:10:52.506Z,13.38
2019-02-25T07:13:56.036Z,14.50
2019-02-25T07:16:49.644Z,13.28
2019-02-25T07:19:32.147Z,14.63
2019-02-25T07:22:29.018Z,14.23
2019-02-25T07:25:17.800Z,13.38
2019-02-25T07:28:17.954Z,13.70
2019-02-25T07:31:00.986Z,17.30
2019-02-25T07:33:45.460Z,19.20
2019-02-25T07:36:32.674Z,19.80
2019-02-25T07:39:09.873Z,18.62
2019-02-25T07:42:02.000Z,22.32
2019-02-25T07:44:46.794Z,22.40
2019-02-25T07:47:27.888Z,18.48
2019-02-25T07:50:22.417Z,16.75
2019-02-25T07:53:16.854Z,16.93
2019-02-25T07:56:02.317Z,16.10
2019-02-25T07:58:45.427Z,13.95
2019-02-25T08:01:39.528Z,12.50
2019-02-25T08:04:18.728Z,12.23
2019-02-25T08:07:00.029Z,13.55
2019-02-25T08:09:53.644Z,12.78
2019-02-25T08:12:38.280Z,12.70
2019-02-25T08:15:20.960Z,10.75
2019-02-25T08:18:13.631Z,13.43
2019-02-25T08:21:00.419Z,12.63
2019-02-25T08:23:50.310Z,11.25
2019-02-25T08:26:29.189Z,12.45
2019-02-25T08:29:10.133Z,12.03
2019-02-25T08:31:49.476Z,11.35
2019-02-25T08:35:03.333Z,12.23
2019-02-25T08:38:00.006Z,13.10
2019-02-25T08:41:08.157Z,12.93
2019-02-25T08:43:58.842Z,12.53
2019-02-25T08:46:33.163Z,12.05
2019-02-25T08:49:10.061Z,13.13
2019-02-25T08:51:39.771Z,12.53
2019-02-25T08:54:09.020Z,14.20
2019-02-25T08:56:38.230Z,13.35
2019-02-25T08:59:07.097Z,13.93
2019-02-25T09:01:36.269Z,13.70
2019-02-25T09:04:05.120Z,12.98
2019-02-25T09:06:34.444Z,13.62
2019-02-25T09:09:05.189Z,15.58
2019-02-25T09:11:34.110Z,16.50
2019-02-25T09:14:04.062Z,20.43
2019-02-25T09:16:32.899Z,21.20
2019-02-25T09:19:04.961Z,22.70
2019-02-25T09:21:33.825Z,27.95
2019-02-25T09:24:02.671Z,21.33
2019-02-25T09:26:31.883Z,24.98
2019-02-25T09:29:01.121Z,21.80
2019-02-25T09:31:30.336Z,18.07
2019-02-25T09:33:59.142Z,17.52
2019-02-25T09:36:33.584Z,15.70
2019-02-25T09:39:02.824Z,15.10
2019-02-25T09:41:31.711Z,13.30
2019-02-25T09:44:01.553Z,11.25
2019-02-25T09:46:31.619Z,10.48
2019-02-25T09:49:00.405Z,11.73
2019-02-25T09:51:29.212Z,11.93
2019-02-25T09:53:58.325Z,11.50
2019-02-25T09:56:27.436Z,10.95
2019-02-25T09:58:56.209Z,11.25
2019-02-25T10:01:24.999Z,11.00
2019-02-25T10:03:53.875Z,10.85
2019-02-25T10:06:23.452Z,11.33
2019-02-25T10:08:52.236Z,10.03
2019-02-25T10:11:21.243Z,11.80
2019-02-25T10:13:51.787Z,11.93
2019-02-25T10:16:20.478Z,11.43
2019-02-25T10:19:17.871Z,10.58
2019-02-25T10:21:47.620Z,9.28
2019-02-25T10:24:17.715Z,10.38
2019-02-25T10:26:46.858Z,11.22
2019-02-25T10:29:15.667Z,11.18
2019-02-25T10:31:44.808Z,11.33
2019-02-25T10:34:13.939Z,11.57
2019-02-25T10:36:45.647Z,11.57
2019-02-25T10:39:17.720Z,11.28
2019-02-25T10:41:47.552Z,10.68
2019-02-25T10:44:18.719Z,11.83
2019-02-25T10:46:49.076Z,11.28
2019-02-25T10:49:17.914Z,10.58
2019-02-25T10:51:46.724Z,11.60
2019-02-25T10:54:17.385Z,11.53
2019-02-25T10:56:51.626Z,11.28
2019-02-25T10:59:20.866Z,10.82
2019-02-25T11:01:49.670Z,11.08
2019-02-25T11:04:20.029Z,10.72
2019-02-25T11:06:49.013Z,15.60
2019-02-25T11:09:29.992Z,11.10
2019-02-25T11:12:00.262Z,10.35
2019-02-25T11:14:31.116Z,10.05
2019-02-25T11:16:59.633Z,11.08
2019-02-25T11:19:30.599Z,10.32
2019-02-25T11:21:59.198Z,10.25
2019-02-25T11:24:27.971Z,10.03
2019-02-25T11:27:03.494Z,9.78
2019-02-25T11:29:33.151Z,10.00
2019-02-25T11:32:02.829Z,9.68
2019-02-25T11:34:35.565Z,9.10
2019-02-25T11:39:34.974Z,8.03
2019-02-25T11:42:10.281Z,8.90
2019-02-25T11:44:39.845Z,8.35
2019-02-25T11:47:09.231Z,9.28
2019-02-25T11:49:40.368Z,8.58
2019-02-25T11:52:09.611Z,8.25
2019-02-25T11:54:38.460Z,7.95
2019-02-25T11:57:07.431Z,7.25
2019-02-25T11:59:36.656Z,8.75
2019-02-25T12:02:07.906Z,5.83
2019-02-25T12:04:39.154Z,6.25
2019-02-25T12:07:09.012Z,6.22
2019-02-25T12:09:38.192Z,4.80
2019-02-25T12:12:08.388Z,5.40
2019-02-25T12:14:37.333Z,3.55
2019-02-25T12:17:07.230Z,2.85
2019-02-25T12:19:36.680Z,3.72
2019-02-25T12:22:06.116Z,3.02
2019-02-25T12:24:34.900Z,3.50
2019-02-25T12:27:03.704Z,2.77
2019-02-25T12:29:32.501Z,3.67
2019-02-25T12:32:01.720Z,3.45
2019-02-25T12:34:56.485Z,2.55
2019-02-25T12:37:25.690Z,2.37
2019-02-25T12:39:54.584Z,2.22
2019-02-25T12:42:23.420Z,2.40
2019-02-25T12:44:52.212Z,3.12
2019-02-25T12:47:21.440Z,3.42
2019-02-25T12:49:50.933Z,3.58
2019-02-25T12:52:19.705Z,2.90
2019-02-25T12:54:48.870Z,3.20
2019-02-25T12:57:17.655Z,3.40
2019-02-25T12:59:46.761Z,3.12
2019-02-25T13:02:16.919Z,3.58
2019-02-25T13:04:46.403Z,3.85
2019-02-25T13:07:16.988Z,2.95
2019-02-25T13:09:46.140Z,2.92
2019-02-25T13:12:17.262Z,3.17
2019-02-25T13:14:46.088Z,3.33
2019-02-25T13:17:14.832Z,2.75
2019-02-25T13:19:43.621Z,2.90
2019-02-25T13:22:12.392Z,3.25
2019-02-25T13:24:41.277Z,2.90
2019-02-25T13:27:11.787Z,3.02
2019-02-25T13:29:40.537Z,2.60
2019-02-25T13:32:12.057Z,3.08
2019-02-25T13:34:40.805Z,2.27
2019-02-25T13:37:10.300Z,2.17
2019-02-25T13:39:39.074Z,2.25
2019-02-25T13:42:07.848Z,2.65
2019-02-25T13:44:36.669Z,2.20
2019-02-25T13:47:05.955Z,2.60
2019-02-25T13:49:34.735Z,2.65
2019-02-25T13:52:03.696Z,2.20
2019-02-25T13:54:32.641Z,2.33
2019-02-25T13:57:01.411Z,2.40
2019-02-25T13:59:31.549Z,2.55
2019-02-25T14:02:03.344Z,3.25
2019-02-25T14:04:32.116Z,2.30
2019-02-25T14:07:02.323Z,2.98
2019-02-25T14:09:31.186Z,2.80
2019-02-25T14:12:00.054Z,2.62
2019-02-25T14:14:28.823Z,2.37
2019-02-25T14:16:57.975Z,2.52
2019-02-25T14:19:30.244Z,2.40
2019-02-25T14:22:23.380Z,1.90
2019-02-25T14:24:57.015Z,2.35
2019-02-25T14:27:27.162Z,2.47
2019-02-25T14:29:56.458Z,2.92
2019-02-25T14:32:27.846Z,3.45
2019-02-25T14:34:55.898Z,4.55
2019-02-25T14:37:24.860Z,4.28
2019-02-25T14:39:54.405Z,3.90
2019-02-25T14:42:26.021Z,3.70
2019-02-25T14:44:56.375Z,6.00
2019-02-25T14:47:31.232Z,3.98
2019-02-25T14:50:00.553Z,2.92
2019-02-25T14:52:31.339Z,3.00
2019-02-25T14:55:01.331Z,2.90
2019-02-25T14:57:30.835Z,4.22
2019-02-25T15:00:01.011Z,3.62
2019-02-25T15:02:29.817Z,4.17
2019-02-25T15:04:58.571Z,4.53
2019-02-25T15:07:27.405Z,5.58
2019-02-25T15:09:57.947Z,6.70
2019-02-25T15:12:29.509Z,7.20
2019-02-25T15:15:00.134Z,6.58
2019-02-25T15:17:30.064Z,6.75
2019-02-25T15:19:58.932Z,7.17
2019-02-25T15:22:28.243Z,6.17
2019-02-25T15:24:59.304Z,6.67
2019-02-25T15:27:28.412Z,6.85
2019-02-25T15:29:57.387Z,6.30
2019-02-25T15:32:26.269Z,6.90
2019-02-25T15:34:57.130Z,7.65
2019-02-25T15:37:25.661Z,6.03
2019-02-25T15:39:55.901Z,7.50
2019-02-25T15:42:26.071Z,7.42
2019-02-25T15:44:57.484Z,7.62
2019-02-25T15:47:26.497Z,7.75
2019-02-25T15:49:59.605Z,7.35
2019-02-25T15:52:27.570Z,7.05
2019-02-25T15:54:56.679Z,6.92
2019-02-25T15:57:26.391Z,6.58
2019-02-25T15:59:56.203Z,6.92
2019-02-25T16:02:24.977Z,6.60
2019-02-25T16:04:56.424Z,8.08
2019-02-25T16:07:26.009Z,7.50
2019-02-25T16:09:57.131Z,6.85
2019-02-25T16:12:27.084Z,6.50
2019-02-25T16:14:56.387Z,7.37
2019-02-25T16:17:25.254Z,7.28
2019-02-25T16:19:54.691Z,6.45
2019-02-25T16:22:25.733Z,8.38
2019-02-25T16:24:54.155Z,6.78
2019-02-25T16:27:23.578Z,7.87
2019-02-25T16:29:55.932Z,7.85
2019-02-25T16:32:26.132Z,6.85
2019-02-25T16:34:56.002Z,6.90
2019-02-25T16:37:27.350Z,7.80
2019-02-25T16:40:00.251Z,7.15
2019-02-25T16:42:28.229Z,6.20
2019-02-25T16:45:01.142Z,6.55
2019-02-25T16:47:34.578Z,6.50
2019-02-25T16:50:00.660Z,6.62
2019-02-25T16:52:29.468Z,6.33
2019-02-25T16:54:58.259Z,6.33
2019-02-25T16:57:27.400Z,8.03
2019-02-25T16:59:57.610Z,6.17
2019-02-25T17:02:27.481Z,6.30
2019-02-25T17:04:57.799Z,6.92
2019-02-25T17:07:26.790Z,7.87
2019-02-25T17:09:56.883Z,8.18
2019-02-25T17:12:27.480Z,8.05
2019-02-25T17:14:56.652Z,7.97
2019-02-25T17:17:25.621Z,9.20
2019-02-25T17:19:54.488Z,8.13
2019-02-25T17:22:23.243Z,9.23
2019-02-25T17:24:52.424Z,10.72
2019-02-25T17:27:22.568Z,9.65
2019-02-25T17:29:53.316Z,10.78
2019-02-25T17:32:23.276Z,10.58
2019-02-25T17:34:52.481Z,12.18
2019-02-25T17:37:21.240Z,12.85
2019-02-25T17:39:54.070Z,15.00
2019-02-25T17:42:22.085Z,14.43
2019-02-25T17:44:53.626Z,10.78
2019-02-25T17:47:24.503Z,11.48
2019-02-25T17:49:53.485Z,11.00
2019-02-25T17:52:22.887Z,9.58
2019-02-25T17:54:52.539Z,11.03
2019-02-25T17:57:22.121Z,10.48
2019-02-25T17:59:51.447Z,10.23
2019-02-25T18:02:21.383Z,11.30
2019-02-25T18:04:51.281Z,12.25
2019-02-25T18:07:20.966Z,11.38
2019-02-25T18:09:49.926Z,10.53
2019-02-25T18:12:19.092Z,11.80
2019-02-25T18:14:48.102Z,10.85
2019-02-25T18:17:18.811Z,12.43
2019-02-25T18:19:48.341Z,11.22
2019-02-25T18:22:18.187Z,11.78
2019-02-25T18:24:47.257Z,11.60
2019-02-25T18:27:19.186Z,12.13
2019-02-25T18:29:48.237Z,11.85
2019-02-25T18:32:19.915Z,11.25
2019-02-25T18:34:49.942Z,12.40
2019-02-25T18:37:19.497Z,11.18
2019-02-25T18:39:49.982Z,11.88
2019-02-25T18:42:21.676Z,11.88
2019-02-25T18:44:51.357Z,11.68
2019-02-25T18:47:23.438Z,13.20
2019-02-25T18:49:53.928Z,12.03
2019-02-25T18:52:22.877Z,13.28
2019-02-25T18:54:51.795Z,14.58
2019-02-25T18:57:23.135Z,13.08
2019-02-25T18:59:52.339Z,13.28
2019-02-25T19:02:21.106Z,12.50
2019-02-25T19:04:49.963Z,12.40
2019-02-25T19:07:19.334Z,13.10
2019-02-25T19:09:49.336Z,13.95
2019-02-25T19:12:18.822Z,12.60
2019-02-25T19:14:51.080Z,12.60
2019-02-25T19:17:18.338Z,14.83
2019-02-25T19:19:49.914Z,12.73
2019-02-25T19:22:19.449Z,17.17
2019-02-25T19:24:49.248Z,13.65
2019-02-25T19:27:19.107Z,12.82
2019-02-25T19:29:49.485Z,13.85
2019-02-25T19:32:18.410Z,17.27
2019-02-25T19:34:47.654Z,15.00
2019-02-25T19:37:16.585Z,13.25
2019-02-25T19:39:46.841Z,16.02
2019-02-25T19:42:18.226Z,21.40
2019-02-25T19:44:47.171Z,18.52
2019-02-25T19:47:16.796Z,15.98
2019-02-25T19:49:46.710Z,16.77
2019-02-25T19:52:16.852Z,17.32
2019-02-25T19:54:47.750Z,20.52
2019-02-25T19:57:18.707Z,19.25
2019-02-25T19:59:50.254Z,19.57
2019-02-25T20:02:17.557Z,18.12
2019-02-25T20:04:51.444Z,14.23
2019-02-25T20:07:20.099Z,16.05
2019-02-25T20:09:48.249Z,17.00
2019-02-25T20:12:20.441Z,14.35
2019-02-25T20:14:47.499Z,14.85
2019-02-25T20:17:16.972Z,17.57
2019-02-25T20:19:48.425Z,15.88
2019-02-25T20:22:18.446Z,16.40
2019-02-25T20:24:48.325Z,16.17
2019-02-25T20:27:17.923Z,16.05
2019-02-25T20:29:47.919Z,14.85
2019-02-25T20:32:18.526Z,16.62
2019-02-25T20:34:49.920Z,15.25
2019-02-25T20:37:18.942Z,15.28
2019-02-25T20:39:48.484Z,16.93
2019-02-25T20:42:21.767Z,15.15
2019-02-25T20:44:49.223Z,16.20
2019-02-25T20:47:18.675Z,16.27
2019-02-25T20:49:49.366Z,15.23
2019-02-25T20:52:18.615Z,17.12
2019-02-25T20:54:49.596Z,17.52
2019-02-25T20:57:18.837Z,15.15
2019-02-25T20:59:48.818Z,17.80
2019-02-25T21:02:18.887Z,16.25
2019-02-25T21:04:50.592Z,16.75
2019-02-25T21:07:21.238Z,18.20
2019-02-25T21:09:50.116Z,23.12
2019-02-25T21:12:20.167Z,20.97
2019-02-25T21:14:49.019Z,18.60
2019-02-25T21:17:17.787Z,18.27
2019-02-25T21:19:47.177Z,19.45
2019-02-25T21:22:15.933Z,20.80
2019-02-25T21:24:44.799Z,17.67
2019-02-25T21:27:13.667Z,19.92
2019-02-25T21:29:42.725Z,20.37
2019-02-25T21:32:15.333Z,21.37
2019-02-25T21:34:46.067Z,19.10
2019-02-25T21:37:13.498Z,19.30
2019-02-25T21:39:42.834Z,19.77
2019-02-25T21:42:14.724Z,19.15
2019-02-25T21:44:46.156Z,18.25
2019-02-25T21:47:12.898Z,15.08
2019-02-25T21:49:41.674Z,19.57
2019-02-25T21:52:15.317Z,20.70
2019-02-25T21:54:45.044Z,18.80
2019-02-25T21:57:14.640Z,20.25
2019-02-25T21:59:43.814Z,19.77
2019-02-25T22:02:12.759Z,19.87
2019-02-25T22:04:43.043Z,19.42
2019-02-25T22:07:12.057Z,17.05
2019-02-25T22:09:45.396Z,17.07
2019-02-25T22:12:15.474Z,17.90
2019-02-25T22:14:46.056Z,19.45
2019-02-25T22:17:19.498Z,20.23
2019-02-25T22:19:51.552Z,20.07
2019-02-25T22:22:26.198Z,18.82
2019-02-25T22:25:01.265Z,18.98
2019-02-25T22:27:30.845Z,17.32
2019-02-25T22:30:00.502Z,18.82
2019-02-25T22:32:31.327Z,17.48
2019-02-25T22:35:02.681Z,17.92
2019-02-25T22:37:31.285Z,18.55
2019-02-25T22:40:00.066Z,16.67
2019-02-25T22:42:29.714Z,16.12
2019-02-25T22:44:59.767Z,18.20
2019-02-25T22:47:28.525Z,20.32
2019-02-25T22:49:57.328Z,17.57
2019-02-25T22:52:27.180Z,18.60
2019-02-25T22:54:56.608Z,16.42
2019-02-25T22:57:27.287Z,15.60
2019-02-25T22:59:55.858Z,14.03
2019-02-25T23:02:27.295Z,15.03
2019-02-25T23:04:56.260Z,14.85
2019-02-25T23:07:25.158Z,15.05
2019-02-25T23:09:54.422Z,15.08
2019-02-25T23:12:24.860Z,17.30
2019-02-25T23:14:56.014Z,17.62
2019-02-25T23:17:24.901Z,15.43
2019-02-25T23:19:53.666Z,18.70
2019-02-25T23:22:22.434Z,17.17
2019-02-25T23:24:51.245Z,17.20
2019-02-25T23:27:20.011Z,18.32
2019-02-25T23:29:48.787Z,18.75
2019-02-25T23:32:17.997Z,18.70
2019-02-25T23:34:49.584Z,17.48
2019-02-25T23:37:19.294Z,18.77
2019-02-25T23:39:47.873Z,19.15
2019-02-25T23:42:18.008Z,18.00
2019-02-25T23:44:46.950Z,19.75
2019-02-25T23:47:15.760Z,16.60
2019-02-25T23:49:46.202Z,17.70
2019-02-25T23:52:15.024Z,17.60
2019-02-25T23:54:45.595Z,19.10
2019-02-25T23:57:17.030Z,17.73
2019-02-25T23:59:47.040Z,18.17
